sensor_id;sensor_type;location;lat;lon;timestamp;pressure;altitude;pressure_sealevel;temperature;humidity
7376;BME280;3728;42.266;24.944;2022-10-22T00:01:19;100533.66;;;8.69;80.45
7376;BME280;3728;42.266;24.944;2022-10-22T00:03:49;100534.69;;;8.68;80.96
7376;BME280;3728;42.266;24.944;2022-10-22T00:06:16;100527.13;;;8.61;80.81
7376;BME280;3728;42.266;24.944;2022-10-22T00:08:43;100530.78;;;8.65;80.72
7376;BME280;3728;42.266;24.944;2022-10-22T00:11:13;100523.72;;;8.61;80.78
7376;BME280;3728;42.266;24.944;2022-10-22T00:13:43;100534.97;;;8.71;79.70
7376;BME280;3728;42.266;24.944;2022-10-22T00:16:12;100527.38;;;8.70;79.97
7376;BME280;3728;42.266;24.944;2022-10-22T00:18:40;100525.31;;;8.52;80.42
7376;BME280;3728;42.266;24.944;2022-10-22T00:21:08;100525.03;;;8.48;81.30
7376;BME280;3728;42.266;24.944;2022-10-22T00:23:39;100516.94;;;8.40;81.77
7376;BME280;3728;42.266;24.944;2022-10-22T00:26:08;100516.66;;;8.36;81.79
7376;BME280;3728;42.266;24.944;2022-10-22T00:28:36;100517.72;;;8.40;82.52
7376;BME280;3728;42.266;24.944;2022-10-22T00:31:04;100512.00;;;8.33;82.84
7376;BME280;3728;42.266;24.944;2022-10-22T00:33:32;100508.31;;;8.44;82.41
7376;BME280;3728;42.266;24.944;2022-10-22T00:36:00;100516.94;;;8.50;82.34
7376;BME280;3728;42.266;24.944;2022-10-22T00:38:27;100522.16;;;8.65;81.31
7376;BME280;3728;42.266;24.944;2022-10-22T00:40:55;100513.00;;;8.57;82.07
7376;BME280;3728;42.266;24.944;2022-10-22T00:43:22;100509.09;;;8.60;82.09
7376;BME280;3728;42.266;24.944;2022-10-22T00:45:50;100513.00;;;8.67;81.90
7376;BME280;3728;42.266;24.944;2022-10-22T00:48:21;100508.06;;;8.56;82.43
7376;BME280;3728;42.266;24.944;2022-10-22T00:51:03;100502.06;;;8.70;82.15
7376;BME280;3728;42.266;24.944;2022-10-22T00:53:42;100501.81;;;8.52;82.91
7376;BME280;3728;42.266;24.944;2022-10-22T00:56:11;100496.56;;;8.42;83.74
7376;BME280;3728;42.266;24.944;2022-10-22T00:58:47;100499.72;;;8.59;84.18
7376;BME280;3728;42.266;24.944;2022-10-22T01:01:24;100496.81;;;8.55;84.00
7376;BME280;3728;42.266;24.944;2022-10-22T01:03:54;100491.88;;;8.59;84.43
7376;BME280;3728;42.266;24.944;2022-10-22T01:06:25;100495.00;;;8.56;84.89
7376;BME280;3728;42.266;24.944;2022-10-22T01:09:31;100492.66;;;8.44;85.56
7376;BME280;3728;42.266;24.944;2022-10-22T01:32:14;100478.59;;;8.45;87.05
7376;BME280;3728;42.266;24.944;2022-10-22T01:34:49;100479.09;;;8.47;87.86
7376;BME280;3728;42.266;24.944;2022-10-22T01:37:22;100483.53;;;8.62;86.75
7376;BME280;3728;42.266;24.944;2022-10-22T01:39:53;100484.81;;;8.69;86.33
7376;BME280;3728;42.266;24.944;2022-10-22T01:42:23;100481.44;;;8.64;86.14
7376;BME280;3728;42.266;24.944;2022-10-22T01:44:50;100476.72;;;8.56;87.25
7376;BME280;3728;42.266;24.944;2022-10-22T01:47:39;100471.25;;;8.62;87.12
7376;BME280;3728;42.266;24.944;2022-10-22T01:50:26;100475.69;;;8.57;87.58
7376;BME280;3728;42.266;24.944;2022-10-22T01:53:21;100468.91;;;8.51;88.09
7376;BME280;3728;42.266;24.944;2022-10-22T01:56:08;100478.56;;;8.50;88.06
7376;BME280;3728;42.266;24.944;2022-10-22T02:01:45;100474.13;;;8.46;87.76
7376;BME280;3728;42.266;24.944;2022-10-22T02:07:07;100477.28;;;8.48;88.40
7376;BME280;3728;42.266;24.944;2022-10-22T02:09:39;100484.84;;;8.44;88.08
7376;BME280;3728;42.266;24.944;2022-10-22T02:12:12;100486.91;;;8.37;88.39
7376;BME280;3728;42.266;24.944;2022-10-22T02:14:42;100487.16;;;8.51;87.56
7376;BME280;3728;42.266;24.944;2022-10-22T02:17:13;100491.38;;;8.47;87.74
7376;BME280;3728;42.266;24.944;2022-10-22T02:19:55;100479.84;;;8.58;86.57
7376;BME280;3728;42.266;24.944;2022-10-22T02:22:25;100488.47;;;8.53;86.54
7376;BME280;3728;42.266;24.944;2022-10-22T02:24:54;100479.63;;;8.49;87.33
7376;BME280;3728;42.266;24.944;2022-10-22T02:30:21;100480.13;;;8.46;88.00
7376;BME280;3728;42.266;24.944;2022-10-22T02:32:54;100477.28;;;8.38;87.92
7376;BME280;3728;42.266;24.944;2022-10-22T02:35:30;100467.84;;;8.32;88.76
7376;BME280;3728;42.266;24.944;2022-10-22T02:37:58;100469.72;;;8.26;89.08
7376;BME280;3728;42.266;24.944;2022-10-22T02:40:27;100476.47;;;8.27;89.84
7376;BME280;3728;42.266;24.944;2022-10-22T02:42:57;100476.72;;;8.20;90.04
7376;BME280;3728;42.266;24.944;2022-10-22T02:45:24;100475.91;;;8.20;90.49
7376;BME280;3728;42.266;24.944;2022-10-22T02:47:52;100474.09;;;8.20;89.95
7376;BME280;3728;42.266;24.944;2022-10-22T02:50:19;100480.66;;;8.28;90.25
7376;BME280;3728;42.266;24.944;2022-10-22T02:52:47;100480.13;;;8.36;89.32
7376;BME280;3728;42.266;24.944;2022-10-22T02:55:14;100475.44;;;8.33;88.83
7376;BME280;3728;42.266;24.944;2022-10-22T02:57:42;100481.94;;;8.25;89.42
7376;BME280;3728;42.266;24.944;2022-10-22T03:00:10;100485.38;;;8.26;88.91
7376;BME280;3728;42.266;24.944;2022-10-22T03:02:38;100487.41;;;8.19;86.88
7376;BME280;3728;42.266;24.944;2022-10-22T03:05:06;100487.16;;;8.20;86.25
7376;BME280;3728;42.266;24.944;2022-10-22T03:07:34;100491.56;;;8.00;87.27
7376;BME280;3728;42.266;24.944;2022-10-22T03:10:02;100485.03;;;7.92;86.56
7376;BME280;3728;42.266;24.944;2022-10-22T03:12:30;100475.31;;;7.73;87.06
7376;BME280;3728;42.266;24.944;2022-10-22T03:14:57;100477.91;;;7.63;88.70
7376;BME280;3728;42.266;24.944;2022-10-22T03:17:24;100478.69;;;7.68;88.33
7376;BME280;3728;42.266;24.944;2022-10-22T03:19:55;100481.81;;;7.60;88.47
7376;BME280;3728;42.266;24.944;2022-10-22T03:22:26;100487.81;;;7.66;89.17
7376;BME280;3728;42.266;24.944;2022-10-22T03:24:59;100479.47;;;7.53;88.71
7376;BME280;3728;42.266;24.944;2022-10-22T03:27:30;100481.53;;;7.46;88.46
7376;BME280;3728;42.266;24.944;2022-10-22T03:30:00;100481.19;;;7.33;89.18
7376;BME280;3728;42.266;24.944;2022-10-22T03:32:28;100479.00;;;7.10;90.68
7376;BME280;3728;42.266;24.944;2022-10-22T03:34:56;100485.06;;;7.20;90.41
7376;BME280;3728;42.266;24.944;2022-10-22T03:37:29;100472.59;;;7.32;90.57
7376;BME280;3728;42.266;24.944;2022-10-22T03:39:56;100476.84;;;7.53;89.25
7376;BME280;3728;42.266;24.944;2022-10-22T03:42:24;100472.72;;;7.68;88.72
7376;BME280;3728;42.266;24.944;2022-10-22T03:44:51;100472.94;;;7.51;88.59
7376;BME280;3728;42.266;24.944;2022-10-22T03:47:19;100472.63;;;7.42;89.84
7376;BME280;3728;42.266;24.944;2022-10-22T03:49:50;100467.09;;;7.29;87.43
7376;BME280;3728;42.266;24.944;2022-10-22T03:52:18;100468.09;;;7.18;87.58
7376;BME280;3728;42.266;24.944;2022-10-22T03:54:45;100473.75;;;7.05;87.71
7376;BME280;3728;42.266;24.944;2022-10-22T03:57:13;100469.06;;;7.02;87.84
7376;BME280;3728;42.266;24.944;2022-10-22T03:59:43;100468.19;;;6.86;88.97
7376;BME280;3728;42.266;24.944;2022-10-22T04:02:12;100470.34;;;6.99;89.03
7376;BME280;3728;42.266;24.944;2022-10-22T04:04:39;100467.75;;;6.99;85.63
7376;BME280;3728;42.266;24.944;2022-10-22T04:07:07;100468.66;;;6.41;85.32
7376;BME280;3728;42.266;24.944;2022-10-22T04:09:35;100479.72;;;6.27;85.18
7376;BME280;3728;42.266;24.944;2022-10-22T04:12:02;100483.59;;;6.19;85.75
7376;BME280;3728;42.266;24.944;2022-10-22T04:14:34;100472.81;;;6.10;86.75
7376;BME280;3728;42.266;24.944;2022-10-22T04:17:02;100475.84;;;5.97;88.78
7376;BME280;3728;42.266;24.944;2022-10-22T04:19:30;100476.78;;;6.45;87.98
7376;BME280;3728;42.266;24.944;2022-10-22T04:21:58;100471.69;;;6.28;88.10
7376;BME280;3728;42.266;24.944;2022-10-22T04:24:26;100473.19;;;6.19;90.04
7376;BME280;3728;42.266;24.944;2022-10-22T04:26:55;100475.53;;;6.20;90.93
7376;BME280;3728;42.266;24.944;2022-10-22T04:29:22;100472.66;;;6.17;91.63
7376;BME280;3728;42.266;24.944;2022-10-22T04:31:50;100473.72;;;6.21;92.57
7376;BME280;3728;42.266;24.944;2022-10-22T04:34:18;100482.38;;;6.32;93.27
7376;BME280;3728;42.266;24.944;2022-10-22T04:36:45;100473.06;;;6.41;93.25
7376;BME280;3728;42.266;24.944;2022-10-22T04:39:13;100482.50;;;6.47;93.71
7376;BME280;3728;42.266;24.944;2022-10-22T04:41:41;100480.22;;;6.55;93.98
7376;BME280;3728;42.266;24.944;2022-10-22T04:44:08;100485.63;;;6.80;93.14
7376;BME280;3728;42.266;24.944;2022-10-22T04:46:42;100477.72;;;7.12;90.48
7376;BME280;3728;42.266;24.944;2022-10-22T04:49:09;100464.13;;;7.05;87.90
7376;BME280;3728;42.266;24.944;2022-10-22T04:51:37;100470.00;;;6.85;87.29
7376;BME280;3728;42.266;24.944;2022-10-22T04:54:05;100468.69;;;6.83;88.43
7376;BME280;3728;42.266;24.944;2022-10-22T04:56:33;100471.56;;;6.86;87.66
7376;BME280;3728;42.266;24.944;2022-10-22T04:59:04;100470.72;;;6.71;86.87
7376;BME280;3728;42.266;24.944;2022-10-22T05:01:34;100468.78;;;6.56;86.62
7376;BME280;3728;42.266;24.944;2022-10-22T05:04:14;100468.06;;;6.66;86.11
7376;BME280;3728;42.266;24.944;2022-10-22T05:06:43;100455.09;;;6.71;86.38
7376;BME280;3728;42.266;24.944;2022-10-22T05:09:14;100459.41;;;6.55;85.84
7376;BME280;3728;42.266;24.944;2022-10-22T05:11:45;100461.00;;;7.03;81.74
7376;BME280;3728;42.266;24.944;2022-10-22T05:14:16;100467.47;;;6.96;80.22
7376;BME280;3728;42.266;24.944;2022-10-22T05:16:45;100473.50;;;6.59;83.62
7376;BME280;3728;42.266;24.944;2022-10-22T05:19:18;100474.78;;;6.25;86.79
7376;BME280;3728;42.266;24.944;2022-10-22T05:21:50;100471.53;;;6.13;89.54
7376;BME280;3728;42.266;24.944;2022-10-22T05:24:19;100479.28;;;6.08;91.41
7376;BME280;3728;42.266;24.944;2022-10-22T05:26:50;100474.25;;;6.23;90.74
7376;BME280;3728;42.266;24.944;2022-10-22T05:29:22;100479.28;;;6.35;91.73
7376;BME280;3728;42.266;24.944;2022-10-22T05:31:51;100470.59;;;6.56;90.42
7376;BME280;3728;42.266;24.944;2022-10-22T05:34:19;100476.41;;;6.68;90.22
7376;BME280;3728;42.266;24.944;2022-10-22T05:36:47;100466.84;;;6.78;90.12
7376;BME280;3728;42.266;24.944;2022-10-22T05:39:14;100470.66;;;7.08;89.40
7376;BME280;3728;42.266;24.944;2022-10-22T05:41:42;100474.84;;;7.09;88.15
7376;BME280;3728;42.266;24.944;2022-10-22T05:44:11;100468.91;;;7.28;87.88
7376;BME280;3728;42.266;24.944;2022-10-22T05:46:39;100482.25;;;7.32;88.12
7376;BME280;3728;42.266;24.944;2022-10-22T05:49:11;100481.97;;;7.33;88.29
7376;BME280;3728;42.266;24.944;2022-10-22T05:51:41;100468.22;;;7.48;89.37
7376;BME280;3728;42.266;24.944;2022-10-22T05:54:18;100462.28;;;7.68;89.33
7376;BME280;3728;42.266;24.944;2022-10-22T05:56:48;100450.84;;;7.94;88.91
7376;BME280;3728;42.266;24.944;2022-10-22T05:59:15;100458.44;;;8.10;88.17
7376;BME280;3728;42.266;24.944;2022-10-22T06:01:43;100460.31;;;8.35;87.89
7376;BME280;3728;42.266;24.944;2022-10-22T06:04:11;100460.78;;;8.67;86.98
7376;BME280;3728;42.266;24.944;2022-10-22T06:06:59;100473.31;;;8.70;85.60
7376;BME280;3728;42.266;24.944;2022-10-22T06:09:30;100479.84;;;8.73;85.29
7376;BME280;3728;42.266;24.944;2022-10-22T06:12:00;100487.41;;;8.94;84.35
7376;BME280;3728;42.266;24.944;2022-10-22T06:14:28;100479.00;;;9.03;84.04
7376;BME280;3728;42.266;24.944;2022-10-22T06:16:58;100482.91;;;9.10;84.15
7376;BME280;3728;42.266;24.944;2022-10-22T06:19:28;100481.28;;;9.24;83.42
7376;BME280;3728;42.266;24.944;2022-10-22T06:21:57;100488.81;;;9.41;82.92
7376;BME280;3728;42.266;24.944;2022-10-22T06:24:24;100479.03;;;9.61;82.49
7376;BME280;3728;42.266;24.944;2022-10-22T06:26:52;100482.91;;;9.74;81.21
7376;BME280;3728;42.266;24.944;2022-10-22T06:29:21;100485.69;;;9.88;80.68
7376;BME280;3728;42.266;24.944;2022-10-22T06:31:48;100490.72;;;10.23;80.32
7376;BME280;3728;42.266;24.944;2022-10-22T06:34:16;100491.41;;;10.39;79.46
7376;BME280;3728;42.266;24.944;2022-10-22T06:36:45;100498.28;;;10.58;79.00
7376;BME280;3728;42.266;24.944;2022-10-22T06:39:15;100496.50;;;10.82;77.54
7376;BME280;3728;42.266;24.944;2022-10-22T06:41:43;100497.63;;;11.24;78.79
7376;BME280;3728;42.266;24.944;2022-10-22T06:44:17;100496.69;;;11.57;76.42
7376;BME280;3728;42.266;24.944;2022-10-22T06:46:51;100488.38;;;11.92;73.51
7376;BME280;3728;42.266;24.944;2022-10-22T06:49:19;100491.50;;;12.13;71.27
7376;BME280;3728;42.266;24.944;2022-10-22T06:51:51;100501.91;;;12.18;70.81
7376;BME280;3728;42.266;24.944;2022-10-22T06:54:20;100495.41;;;12.48;68.68
7376;BME280;3728;42.266;24.944;2022-10-22T06:56:48;100494.81;;;12.51;69.62
7376;BME280;3728;42.266;24.944;2022-10-22T06:59:16;100497.59;;;12.59;68.28
7376;BME280;3728;42.266;24.944;2022-10-22T07:01:44;100502.78;;;12.91;67.87
7376;BME280;3728;42.266;24.944;2022-10-22T07:04:15;100503.91;;;13.18;66.68
7376;BME280;3728;42.266;24.944;2022-10-22T07:06:44;100505.56;;;13.14;66.18
7376;BME280;3728;42.266;24.944;2022-10-22T07:09:13;100503.47;;;13.65;62.38
7376;BME280;3728;42.266;24.944;2022-10-22T07:11:43;100506.25;;;13.33;64.24
7376;BME280;3728;42.266;24.944;2022-10-22T07:14:13;100498.06;;;13.07;66.02
7376;BME280;3728;42.266;24.944;2022-10-22T07:16:42;100485.59;;;13.13;66.83
7376;BME280;3728;42.266;24.944;2022-10-22T07:19:11;100492.13;;;13.29;65.88
7376;BME280;3728;42.266;24.944;2022-10-22T07:21:39;100488.88;;;13.45;65.24
7376;BME280;3728;42.266;24.944;2022-10-22T07:24:09;100502.50;;;13.75;63.88
7376;BME280;3728;42.266;24.944;2022-10-22T07:26:36;100497.56;;;13.95;61.57
7376;BME280;3728;42.266;24.944;2022-10-22T07:29:05;100499.44;;;13.81;62.26
7376;BME280;3728;42.266;24.944;2022-10-22T07:31:34;100494.59;;;13.97;62.30
7376;BME280;3728;42.266;24.944;2022-10-22T07:34:03;100494.31;;;13.98;62.63
7376;BME280;3728;42.266;24.944;2022-10-22T07:36:30;100491.19;;;14.32;61.57
7376;BME280;3728;42.266;24.944;2022-10-22T07:38:59;100495.06;;;14.34;61.80
7376;BME280;3728;42.266;24.944;2022-10-22T07:41:28;100494.50;;;14.02;62.52
7376;BME280;3728;42.266;24.944;2022-10-22T07:43:56;100501.50;;;14.06;63.88
7376;BME280;3728;42.266;24.944;2022-10-22T07:46:25;100499.13;;;14.18;63.04
7376;BME280;3728;42.266;24.944;2022-10-22T07:48:53;100501.16;;;14.21;63.89
7376;BME280;3728;42.266;24.944;2022-10-22T07:51:21;100502.25;;;14.43;62.94
7376;BME280;3728;42.266;24.944;2022-10-22T07:53:49;100506.63;;;14.69;60.42
7376;BME280;3728;42.266;24.944;2022-10-22T07:56:17;100503.44;;;14.89;59.12
7376;BME280;3728;42.266;24.944;2022-10-22T07:58:48;100493.84;;;14.93;59.89
7376;BME280;3728;42.266;24.944;2022-10-22T08:01:16;100493.56;;;14.95;58.70
7376;BME280;3728;42.266;24.944;2022-10-22T08:03:44;100492.53;;;15.22;58.13
7376;BME280;3728;42.266;24.944;2022-10-22T08:06:12;100501.66;;;15.07;59.68
7376;BME280;3728;42.266;24.944;2022-10-22T08:08:41;100496.28;;;15.29;58.06
7376;BME280;3728;42.266;24.944;2022-10-22T08:11:11;100495.75;;;15.10;59.07
7376;BME280;3728;42.266;24.944;2022-10-22T08:13:38;100496.09;;;15.73;57.13
7376;BME280;3728;42.266;24.944;2022-10-22T08:16:11;100491.34;;;15.36;57.65
7376;BME280;3728;42.266;24.944;2022-10-22T08:18:39;100493.50;;;15.34;58.24
7376;BME280;3728;42.266;24.944;2022-10-22T08:21:06;100483.06;;;15.77;56.95
7376;BME280;3728;42.266;24.944;2022-10-22T08:23:34;100488.16;;;15.91;57.46
7376;BME280;3728;42.266;24.944;2022-10-22T08:26:02;100485.50;;;16.16;56.65
7376;BME280;3728;42.266;24.944;2022-10-22T08:28:30;100489.91;;;16.04;57.75
7376;BME280;3728;42.266;24.944;2022-10-22T08:31:04;100484.56;;;16.21;58.41
7376;BME280;3728;42.266;24.944;2022-10-22T08:33:33;100494.34;;;16.46;56.03
7376;BME280;3728;42.266;24.944;2022-10-22T08:36:00;100491.28;;;16.90;53.12
7376;BME280;3728;42.266;24.944;2022-10-22T08:38:28;100484.09;;;16.53;54.78
7376;BME280;3728;42.266;24.944;2022-10-22T08:41:10;100487.69;;;16.86;54.11
7376;BME280;3728;42.266;24.944;2022-10-22T08:44:01;100480.41;;;17.21;53.58
7376;BME280;3728;42.266;24.944;2022-10-22T08:50:14;100473.88;;;17.68;51.50
7376;BME280;3728;42.266;24.944;2022-10-22T08:52:51;100481.50;;;17.91;50.42
7376;BME280;3728;42.266;24.944;2022-10-22T08:55:24;100473.66;;;17.53;52.22
7376;BME280;3728;42.266;24.944;2022-10-22T08:57:58;100466.06;;;17.72;51.92
7376;BME280;3728;42.266;24.944;2022-10-22T09:01:16;100476.25;;;18.03;50.29
7376;BME280;3728;42.266;24.944;2022-10-22T09:06:52;100466.63;;;18.31;49.04
7376;BME280;3728;42.266;24.944;2022-10-22T09:09:28;100466.31;;;18.44;49.46
7376;BME280;3728;42.266;24.944;2022-10-22T09:12:03;100466.50;;;18.72;49.29
7376;BME280;3728;42.266;24.944;2022-10-22T09:14:47;100465.28;;;18.70;47.73
7376;BME280;3728;42.266;24.944;2022-10-22T09:17:17;100461.88;;;18.93;47.38
7376;BME280;3728;42.266;24.944;2022-10-22T09:20:38;100451.78;;;19.35;45.58
7376;BME280;3728;42.266;24.944;2022-10-22T09:23:46;100448.97;;;19.56;46.40
7376;BME280;3728;42.266;24.944;2022-10-22T09:26:16;100446.91;;;19.77;46.17
7376;BME280;3728;42.266;24.944;2022-10-22T09:28:48;100449.47;;;20.29;43.44
7376;BME280;3728;42.266;24.944;2022-10-22T09:31:17;100437.78;;;19.90;44.89
7376;BME280;3728;42.266;24.944;2022-10-22T09:33:49;100437.34;;;20.16;45.15
7376;BME280;3728;42.266;24.944;2022-10-22T09:36:21;100441.13;;;20.30;42.93
7376;BME280;3728;42.266;24.944;2022-10-22T09:38:51;100444.09;;;20.13;44.49
7376;BME280;3728;42.266;24.944;2022-10-22T09:41:26;100433.19;;;20.03;44.63
7376;BME280;3728;42.266;24.944;2022-10-22T09:43:55;100430.63;;;20.06;44.38
7376;BME280;3728;42.266;24.944;2022-10-22T09:46:28;100416.06;;;20.16;44.76
7376;BME280;3728;42.266;24.944;2022-10-22T09:49:03;100407.13;;;20.08;43.75
7376;BME280;3728;42.266;24.944;2022-10-22T09:51:48;100399.81;;;20.05;44.13
7376;BME280;3728;42.266;24.944;2022-10-22T09:54:23;100401.88;;;20.12;44.44
7376;BME280;3728;42.266;24.944;2022-10-22T09:57:02;100404.69;;;20.47;43.44
7376;BME280;3728;42.266;24.944;2022-10-22T09:59:37;100406.91;;;20.44;44.01
7376;BME280;3728;42.266;24.944;2022-10-22T10:02:12;100403.91;;;20.46;43.03
7376;BME280;3728;42.266;24.944;2022-10-22T10:04:56;100402.56;;;20.87;42.37
7376;BME280;3728;42.266;24.944;2022-10-22T10:07:27;100389.50;;;20.97;41.47
7376;BME280;3728;42.266;24.944;2022-10-22T10:09:58;100375.41;;;20.97;41.13
7376;BME280;3728;42.266;24.944;2022-10-22T10:12:38;100376.03;;;21.25;41.58
7376;BME280;3728;42.266;24.944;2022-10-22T10:15:37;100388.16;;;21.61;40.11
7376;BME280;3728;42.266;24.944;2022-10-22T10:24:10;100368.34;;;21.81;40.47
7376;BME280;3728;42.266;24.944;2022-10-22T10:27:01;100360.44;;;21.85;40.48
7376;BME280;3728;42.266;24.944;2022-10-22T10:35:33;100341.41;;;22.31;39.79
7376;BME280;3728;42.266;24.944;2022-10-22T10:49:25;100305.53;;;23.44;37.16
7376;BME280;3728;42.266;24.944;2022-10-22T11:00:55;100295.81;;;23.66;36.97
7376;BME280;3728;42.266;24.944;2022-10-22T11:03:42;100291.53;;;23.54;36.93
7376;BME280;3728;42.266;24.944;2022-10-22T11:06:19;100285.63;;;23.78;36.33
7376;BME280;3728;42.266;24.944;2022-10-22T11:08:59;100283.88;;;23.56;36.26
7376;BME280;3728;42.266;24.944;2022-10-22T11:11:49;100268.34;;;23.69;36.61
7376;BME280;3728;42.266;24.944;2022-10-22T11:17:03;100273.91;;;24.48;35.37
7376;BME280;3728;42.266;24.944;2022-10-22T11:19:44;100268.06;;;25.00;35.11
7376;BME280;3728;42.266;24.944;2022-10-22T11:22:43;100264.34;;;25.44;33.73
7376;BME280;3728;42.266;24.944;2022-10-22T11:25:48;100262.84;;;25.78;33.34
7376;BME280;3728;42.266;24.944;2022-10-22T11:28:24;100253.25;;;26.09;33.30
7376;BME280;3728;42.266;24.944;2022-10-22T11:31:04;100256.69;;;26.34;32.98
7376;BME280;3728;42.266;24.944;2022-10-22T11:36:31;100234.09;;;26.10;31.90
7376;BME280;3728;42.266;24.944;2022-10-22T11:39:03;100232.16;;;25.72;32.32
7376;BME280;3728;42.266;24.944;2022-10-22T11:41:32;100239.06;;;25.45;32.58
7376;BME280;3728;42.266;24.944;2022-10-22T11:49:25;100220.66;;;25.29;32.77
7376;BME280;3728;42.266;24.944;2022-10-22T12:03:41;100183.34;;;24.03;35.30
7376;BME280;3728;42.266;24.944;2022-10-22T12:09:00;100181.81;;;23.47;36.75
7376;BME280;3728;42.266;24.944;2022-10-22T12:11:44;100183.97;;;23.78;35.57
7376;BME280;3728;42.266;24.944;2022-10-22T12:14:25;100177.91;;;23.38;36.37
7376;BME280;3728;42.266;24.944;2022-10-22T12:17:07;100173.97;;;23.25;36.23
7376;BME280;3728;42.266;24.944;2022-10-22T12:19:43;100170.91;;;22.89;36.69
7376;BME280;3728;42.266;24.944;2022-10-22T12:22:28;100162.88;;;22.86;37.33
7376;BME280;3728;42.266;24.944;2022-10-22T12:25:00;100163.88;;;23.11;35.95
7376;BME280;3728;42.266;24.944;2022-10-22T12:27:39;100167.97;;;22.98;37.12
7376;BME280;3728;42.266;24.944;2022-10-22T12:30:31;100168.84;;;23.46;36.05
7376;BME280;3728;42.266;24.944;2022-10-22T12:33:06;100158.66;;;23.22;36.74
7376;BME280;3728;42.266;24.944;2022-10-22T12:35:45;100158.09;;;23.42;36.24
7376;BME280;3728;42.266;24.944;2022-10-22T12:38:20;100155.66;;;23.27;36.12
7376;BME280;3728;42.266;24.944;2022-10-22T12:40:50;100154.75;;;23.56;35.72
7376;BME280;3728;42.266;24.944;2022-10-22T12:43:26;100150.25;;;23.23;35.32
7376;BME280;3728;42.266;24.944;2022-10-22T12:45:55;100141.88;;;22.84;36.75
7376;BME280;3728;42.266;24.944;2022-10-22T12:48:36;100134.06;;;23.05;36.39
7376;BME280;3728;42.266;24.944;2022-10-22T12:51:06;100137.28;;;23.72;35.92
7376;BME280;3728;42.266;24.944;2022-10-22T12:53:46;100142.00;;;24.76;34.05
7376;BME280;3728;42.266;24.944;2022-10-22T12:56:22;100146.72;;;25.60;32.23
7376;BME280;3728;42.266;24.944;2022-10-22T12:58:58;100153.09;;;26.29;31.46
7376;BME280;3728;42.266;24.944;2022-10-22T13:01:33;100146.75;;;26.71;30.66
7376;BME280;3728;42.266;24.944;2022-10-22T13:09:56;100139.72;;;26.19;30.88
7376;BME280;3728;42.266;24.944;2022-10-22T13:12:34;100129.47;;;25.64;31.50
7376;BME280;3728;42.266;24.944;2022-10-22T13:20:53;100123.16;;;24.44;33.13
7376;BME280;3728;42.266;24.944;2022-10-22T13:23:29;100126.50;;;24.20;32.89
7376;BME280;3728;42.266;24.944;2022-10-22T13:26:02;100117.84;;;23.79;34.61
7376;BME280;3728;42.266;24.944;2022-10-22T13:28:41;100116.09;;;23.46;35.27
7376;BME280;3728;42.266;24.944;2022-10-22T13:31:23;100118.31;;;23.37;35.81
7376;BME280;3728;42.266;24.944;2022-10-22T13:33:59;100108.59;;;23.66;34.26
7376;BME280;3728;42.266;24.944;2022-10-22T13:36:36;100095.28;;;23.22;35.51
7376;BME280;3728;42.266;24.944;2022-10-22T13:39:05;100102.94;;;23.27;34.83
7376;BME280;3728;42.266;24.944;2022-10-22T13:41:37;100105.47;;;23.09;35.25
7376;BME280;3728;42.266;24.944;2022-10-22T13:44:06;100107.78;;;23.11;35.32
7376;BME280;3728;42.266;24.944;2022-10-22T13:46:37;100110.84;;;23.60;33.72
7376;BME280;3728;42.266;24.944;2022-10-22T13:49:14;100109.34;;;23.59;34.83
7376;BME280;3728;42.266;24.944;2022-10-22T13:51:43;100109.47;;;23.80;34.61
7376;BME280;3728;42.266;24.944;2022-10-22T13:54:15;100103.97;;;24.24;33.93
7376;BME280;3728;42.266;24.944;2022-10-22T13:56:50;100103.00;;;25.28;32.64
7376;BME280;3728;42.266;24.944;2022-10-22T13:59:19;100085.94;;;26.29;30.91
7376;BME280;3728;42.266;24.944;2022-10-22T14:01:50;100097.22;;;27.27;30.25
7376;BME280;3728;42.266;24.944;2022-10-22T14:04:19;100098.25;;;28.15;27.99
7376;BME280;3728;42.266;24.944;2022-10-22T14:06:46;100103.84;;;28.61;27.83
7376;BME280;3728;42.266;24.944;2022-10-22T14:09:14;100098.69;;;28.70;27.42
7376;BME280;3728;42.266;24.944;2022-10-22T14:11:42;100098.84;;;29.09;26.56
7376;BME280;3728;42.266;24.944;2022-10-22T14:14:10;100095.22;;;29.43;26.84
7376;BME280;3728;42.266;24.944;2022-10-22T14:16:39;100095.59;;;29.64;26.32
7376;BME280;3728;42.266;24.944;2022-10-22T14:19:13;100084.66;;;29.52;25.61
7376;BME280;3728;42.266;24.944;2022-10-22T14:21:45;100079.59;;;29.73;25.39
7376;BME280;3728;42.266;24.944;2022-10-22T14:24:15;100080.34;;;29.35;25.97
7376;BME280;3728;42.266;24.944;2022-10-22T14:26:45;100076.59;;;29.29;26.32
7376;BME280;3728;42.266;24.944;2022-10-22T14:29:13;100070.28;;;29.12;26.02
7376;BME280;3728;42.266;24.944;2022-10-22T14:31:42;100074.03;;;28.95;26.17
7376;BME280;3728;42.266;24.944;2022-10-22T14:34:12;100076.97;;;28.54;27.22
7376;BME280;3728;42.266;24.944;2022-10-22T14:36:41;100073.75;;;28.06;28.29
7376;BME280;3728;42.266;24.944;2022-10-22T14:39:12;100072.84;;;27.45;28.85
7376;BME280;3728;42.266;24.944;2022-10-22T14:41:40;100074.47;;;27.35;29.24
7376;BME280;3728;42.266;24.944;2022-10-22T14:44:11;100067.88;;;26.99;29.93
7376;BME280;3728;42.266;24.944;2022-10-22T14:46:43;100062.16;;;26.93;30.69
7376;BME280;3728;42.266;24.944;2022-10-22T14:49:12;100063.34;;;26.85;30.14
7376;BME280;3728;42.266;24.944;2022-10-22T14:51:40;100063.88;;;26.63;30.05
7376;BME280;3728;42.266;24.944;2022-10-22T14:54:08;100061.00;;;26.29;31.11
7376;BME280;3728;42.266;24.944;2022-10-22T14:56:38;100052.34;;;25.90;31.60
7376;BME280;3728;42.266;24.944;2022-10-22T14:59:06;100049.75;;;25.30;32.87
7376;BME280;3728;42.266;24.944;2022-10-22T15:01:34;100052.06;;;24.75;33.32
7376;BME280;3728;42.266;24.944;2022-10-22T15:04:02;100044.66;;;24.15;34.58
7376;BME280;3728;42.266;24.944;2022-10-22T15:06:30;100049.66;;;23.48;35.28
7376;BME280;3728;42.266;24.944;2022-10-22T15:08:57;100053.94;;;23.09;35.30
7376;BME280;3728;42.266;24.944;2022-10-22T15:11:25;100062.09;;;22.83;36.29
7376;BME280;3728;42.266;24.944;2022-10-22T15:13:52;100057.88;;;22.41;37.46
7376;BME280;3728;42.266;24.944;2022-10-22T15:16:21;100061.41;;;22.19;38.54